sensor_id;sensor_type;location;lat;lon;timestamp;temperature;humidity
20446;DHT22;10382;49.140;9.234;2023-04-01T00:01:10;11.10;99.90
20446;DHT22;10382;49.140;9.234;2023-04-01T00:03:39;11.10;99.90
20446;DHT22;10382;49.140;9.234;2023-04-01T00:06:06;11.10;99.90
20446;DHT22;10382;49.140;9.234;2023-04-01T00:08:33;11.00;99.90
20446;DHT22;10382;49.140;9.234;2023-04-01T00:11:00;11.00;99.90
20446;DHT22;10382;49.140;9.234;2023-04-01T00:13:27;11.00;99.90
20446;DHT22;10382;49.140;9.234;2023-04-01T00:15:54;11.00;99.90
20446;DHT22;10382;49.140;9.234;2023-04-01T00:18:23;11.10;99.90
20446;DHT22;10382;49.140;9.234;2023-04-01T00:20:51;11.00;99.90
20446;DHT22;10382;49.140;9.234;2023-04-01T00:23:19;11.10;99.90
20446;DHT22;10382;49.140;9.234;2023-04-01T00:25:47;11.00;99.90
20446;DHT22;10382;49.140;9.234;2023-04-01T00:28:15;11.00;99.90
20446;DHT22;10382;49.140;9.234;2023-04-01T00:30:42;11.00;99.90
20446;DHT22;10382;49.140;9.234;2023-04-01T00:33:09;11.00;99.90
20446;DHT22;10382;49.140;9.234;2023-04-01T00:35:39;11.00;99.90
20446;DHT22;10382;49.140;9.234;2023-04-01T00:38:06;11.00;99.90
20446;DHT22;10382;49.140;9.234;2023-04-01T00:40:35;11.00;99.90
20446;DHT22;10382;49.140;9.234;2023-04-01T00:43:03;11.00;99.90
20446;DHT22;10382;49.140;9.234;2023-04-01T00:45:37;10.90;99.90
20446;DHT22;10382;49.140;9.234;2023-04-01T00:48:07;11.00;99.90
20446;DHT22;10382;49.140;9.234;2023-04-01T00:50:37;11.00;99.90
20446;DHT22;10382;49.140;9.234;2023-04-01T00:53:05;11.00;99.90
20446;DHT22;10382;49.140;9.234;2023-04-01T00:55:35;11.00;99.90
20446;DHT22;10382;49.140;9.234;2023-04-01T00:58:05;10.90;99.90
20446;DHT22;10382;49.140;9.234;2023-04-01T01:00:34;10.90;99.90
20446;DHT22;10382;49.140;9.234;2023-04-01T01:03:02;10.80;99.90
20446;DHT22;10382;49.140;9.234;2023-04-01T01:05:42;10.80;99.90
20446;DHT22;10382;49.140;9.234;2023-04-01T01:08:18;10.80;99.90
20446;DHT22;10382;49.140;9.234;2023-04-01T01:10:49;10.90;99.90
20446;DHT22;10382;49.140;9.234;2023-04-01T01:13:21;10.90;99.90
20446;DHT22;10382;49.140;9.234;2023-04-01T01:15:56;10.90;99.90
20446;DHT22;10382;49.140;9.234;2023-04-01T01:18:30;10.80;99.90
20446;DHT22;10382;49.140;9.234;2023-04-01T01:24:42;10.80;99.90
20446;DHT22;10382;49.140;9.234;2023-04-01T01:27:16;10.80;99.90
20446;DHT22;10382;49.140;9.234;2023-04-01T01:33:02;10.80;99.90
20446;DHT22;10382;49.140;9.234;2023-04-01T01:35:36;10.80;99.90
20446;DHT22;10382;49.140;9.234;2023-04-01T01:38:06;10.80;99.90
20446;DHT22;10382;49.140;9.234;2023-04-01T01:40:36;10.80;99.90
20446;DHT22;10382;49.140;9.234;2023-04-01T01:43:08;10.80;99.90
20446;DHT22;10382;49.140;9.234;2023-04-01T01:45:40;10.90;99.90
20446;DHT22;10382;49.140;9.234;2023-04-01T01:48:08;10.80;99.90
20446;DHT22;10382;49.140;9.234;2023-04-01T01:50:39;10.80;99.90
20446;DHT22;10382;49.140;9.234;2023-04-01T01:53:09;10.80;99.90
20446;DHT22;10382;49.140;9.234;2023-04-01T01:55:37;10.80;99.90
20446;DHT22;10382;49.140;9.234;2023-04-01T01:58:07;10.90;99.90
20446;DHT22;10382;49.140;9.234;2023-04-01T02:00:37;10.90;99.90
20446;DHT22;10382;49.140;9.234;2023-04-01T02:03:05;10.90;99.90
20446;DHT22;10382;49.140;9.234;2023-04-01T02:05:32;10.90;99.90
20446;DHT22;10382;49.140;9.234;2023-04-01T02:08:06;10.90;99.90
20446;DHT22;10382;49.140;9.234;2023-04-01T02:10:36;10.90;99.90
20446;DHT22;10382;49.140;9.234;2023-04-01T02:13:08;10.90;99.90
20446;DHT22;10382;49.140;9.234;2023-04-01T02:15:41;10.90;99.90
20446;DHT22;10382;49.140;9.234;2023-04-01T02:18:09;10.90;99.90
20446;DHT22;10382;49.140;9.234;2023-04-01T02:20:38;10.80;99.90
20446;DHT22;10382;49.140;9.234;2023-04-01T02:23:07;10.70;99.90
20446;DHT22;10382;49.140;9.234;2023-04-01T02:25:37;10.60;99.90
20446;DHT22;10382;49.140;9.234;2023-04-01T02:28:06;10.60;99.90
20446;DHT22;10382;49.140;9.234;2023-04-01T02:30:35;10.70;99.90
20446;DHT22;10382;49.140;9.234;2023-04-01T02:33:03;10.70;99.90
20446;DHT22;10382;49.140;9.234;2023-04-01T02:35:33;10.70;99.90
20446;DHT22;10382;49.140;9.234;2023-04-01T02:38:01;10.70;99.90
20446;DHT22;10382;49.140;9.234;2023-04-01T02:40:29;10.70;99.90
20446;DHT22;10382;49.140;9.234;2023-04-01T02:42:56;10.70;99.90
20446;DHT22;10382;49.140;9.234;2023-04-01T02:45:23;10.70;99.90
20446;DHT22;10382;49.140;9.234;2023-04-01T02:47:50;10.70;99.90
20446;DHT22;10382;49.140;9.234;2023-04-01T02:50:17;10.80;99.90
20446;DHT22;10382;49.140;9.234;2023-04-01T02:52:44;10.80;99.90
20446;DHT22;10382;49.140;9.234;2023-04-01T02:55:11;10.80;99.90
20446;DHT22;10382;49.140;9.234;2023-04-01T02:57:39;10.80;99.90
20446;DHT22;10382;49.140;9.234;2023-04-01T03:00:07;10.80;99.90
20446;DHT22;10382;49.140;9.234;2023-04-01T03:02:37;10.80;99.90
20446;DHT22;10382;49.140;9.234;2023-04-01T03:05:05;10.80;99.90
20446;DHT22;10382;49.140;9.234;2023-04-01T03:07:32;10.70;99.90
20446;DHT22;10382;49.140;9.234;2023-04-01T03:09:59;10.80;99.90
20446;DHT22;10382;49.140;9.234;2023-04-01T03:12:26;10.70;99.90
20446;DHT22;10382;49.140;9.234;2023-04-01T03:14:54;10.70;99.90
20446;DHT22;10382;49.140;9.234;2023-04-01T03:17:21;10.70;99.90
20446;DHT22;10382;49.140;9.234;2023-04-01T03:19:48;10.70;99.90
20446;DHT22;10382;49.140;9.234;2023-04-01T03:22:15;10.60;99.90
20446;DHT22;10382;49.140;9.234;2023-04-01T03:24:41;10.60;99.90
20446;DHT22;10382;49.140;9.234;2023-04-01T03:27:08;10.60;99.90
20446;DHT22;10382;49.140;9.234;2023-04-01T03:29:35;10.60;99.90
20446;DHT22;10382;49.140;9.234;2023-04-01T03:32:03;10.50;99.90
20446;DHT22;10382;49.140;9.234;2023-04-01T03:34:30;10.60;99.90
20446;DHT22;10382;49.140;9.234;2023-04-01T03:36:58;10.60;99.90
20446;DHT22;10382;49.140;9.234;2023-04-01T03:39:25;10.70;99.90
20446;DHT22;10382;49.140;9.234;2023-04-01T03:41:52;10.70;99.90
20446;DHT22;10382;49.140;9.234;2023-04-01T03:44:19;10.70;99.90
20446;DHT22;10382;49.140;9.234;2023-04-01T03:46:45;10.70;99.90
20446;DHT22;10382;49.140;9.234;2023-04-01T03:49:14;10.70;99.90
20446;DHT22;10382;49.140;9.234;2023-04-01T03:51:42;10.60;99.90
20446;DHT22;10382;49.140;9.234;2023-04-01T03:54:10;10.60;99.90
20446;DHT22;10382;49.140;9.234;2023-04-01T03:56:37;10.70;99.90
20446;DHT22;10382;49.140;9.234;2023-04-01T03:59:05;10.70;99.90
20446;DHT22;10382;49.140;9.234;2023-04-01T04:01:33;10.70;99.90
20446;DHT22;10382;49.140;9.234;2023-04-01T04:04:00;10.70;99.90
20446;DHT22;10382;49.140;9.234;2023-04-01T04:06:28;10.80;99.90
20446;DHT22;10382;49.140;9.234;2023-04-01T04:08:55;10.80;99.90
20446;DHT22;10382;49.140;9.234;2023-04-01T04:11:22;10.80;99.90
20446;DHT22;10382;49.140;9.234;2023-04-01T04:13:49;10.80;99.90
20446;DHT22;10382;49.140;9.234;2023-04-01T04:16:16;10.80;99.90
20446;DHT22;10382;49.140;9.234;2023-04-01T04:18:43;10.80;99.90
20446;DHT22;10382;49.140;9.234;2023-04-01T04:21:12;10.70;99.90
20446;DHT22;10382;49.140;9.234;2023-04-01T04:23:41;10.70;99.90
20446;DHT22;10382;49.140;9.234;2023-04-01T04:26:10;10.80;99.90
20446;DHT22;10382;49.140;9.234;2023-04-01T04:28:37;10.80;99.90
20446;DHT22;10382;49.140;9.234;2023-04-01T04:31:04;10.80;99.90
20446;DHT22;10382;49.140;9.234;2023-04-01T04:33:32;10.70;99.90
20446;DHT22;10382;49.140;9.234;2023-04-01T04:35:59;10.70;99.90
20446;DHT22;10382;49.140;9.234;2023-04-01T04:38:27;10.70;99.90
20446;DHT22;10382;49.140;9.234;2023-04-01T04:40:55;10.70;99.90
20446;DHT22;10382;49.140;9.234;2023-04-01T04:43:22;10.60;99.90
20446;DHT22;10382;49.140;9.234;2023-04-01T04:45:49;10.70;99.90
20446;DHT22;10382;49.140;9.234;2023-04-01T04:48:16;10.70;99.90
20446;DHT22;10382;49.140;9.234;2023-04-01T04:50:46;10.60;99.90
20446;DHT22;10382;49.140;9.234;2023-04-01T04:53:14;10.60;99.90
20446;DHT22;10382;49.140;9.234;2023-04-01T04:55:43;10.70;99.90
20446;DHT22;10382;49.140;9.234;2023-04-01T04:58:11;10.60;99.90
20446;DHT22;10382;49.140;9.234;2023-04-01T05:00:38;10.60;99.90
20446;DHT22;10382;49.140;9.234;2023-04-01T05:03:05;10.60;99.90
20446;DHT22;10382;49.140;9.234;2023-04-01T05:05:32;10.60;99.90
20446;DHT22;10382;49.140;9.234;2023-04-01T05:07:59;10.60;99.90
20446;DHT22;10382;49.140;9.234;2023-04-01T05:10:26;10.60;99.90
20446;DHT22;10382;49.140;9.234;2023-04-01T05:12:53;10.70;99.90
20446;DHT22;10382;49.140;9.234;2023-04-01T05:15:21;10.70;99.90
20446;DHT22;10382;49.140;9.234;2023-04-01T05:17:48;10.70;99.90
20446;DHT22;10382;49.140;9.234;2023-04-01T05:20:15;10.70;99.90
20446;DHT22;10382;49.140;9.234;2023-04-01T05:22:42;10.70;99.90
20446;DHT22;10382;49.140;9.234;2023-04-01T05:25:09;10.70;99.90
20446;DHT22;10382;49.140;9.234;2023-04-01T05:27:36;10.70;99.90
20446;DHT22;10382;49.140;9.234;2023-04-01T05:30:04;10.80;99.90
20446;DHT22;10382;49.140;9.234;2023-04-01T05:32:32;10.70;99.90
20446;DHT22;10382;49.140;9.234;2023-04-01T05:34:59;10.70;99.90
20446;DHT22;10382;49.140;9.234;2023-04-01T05:37:26;10.80;99.90
20446;DHT22;10382;49.140;9.234;2023-04-01T05:39:53;10.80;99.90
20446;DHT22;10382;49.140;9.234;2023-04-01T05:42:20;10.80;99.90
20446;DHT22;10382;49.140;9.234;2023-04-01T05:44:46;10.80;99.90
20446;DHT22;10382;49.140;9.234;2023-04-01T05:47:13;10.80;99.90
20446;DHT22;10382;49.140;9.234;2023-04-01T05:49:41;10.80;99.90
20446;DHT22;10382;49.140;9.234;2023-04-01T05:52:08;10.80;99.90
20446;DHT22;10382;49.140;9.234;2023-04-01T05:54:35;10.90;99.90
20446;DHT22;10382;49.140;9.234;2023-04-01T05:57:03;11.00;99.90
20446;DHT22;10382;49.140;9.234;2023-04-01T05:59:29;11.00;99.90
20446;DHT22;10382;49.140;9.234;2023-04-01T06:01:57;11.00;99.90
20446;DHT22;10382;49.140;9.234;2023-04-01T06:04:24;11.00;99.90
20446;DHT22;10382;49.140;9.234;2023-04-01T06:06:53;11.00;99.90
20446;DHT22;10382;49.140;9.234;2023-04-01T06:09:26;11.00;99.90
20446;DHT22;10382;49.140;9.234;2023-04-01T06:12:13;11.00;99.90
20446;DHT22;10382;49.140;9.234;2023-04-01T06:14:51;11.00;99.90
20446;DHT22;10382;49.140;9.234;2023-04-01T06:17:41;11.00;99.90
20446;DHT22;10382;49.140;9.234;2023-04-01T06:20:13;11.00;99.90
20446;DHT22;10382;49.140;9.234;2023-04-01T06:23:02;11.00;99.90
20446;DHT22;10382;49.140;9.234;2023-04-01T06:25:37;11.00;99.90
20446;DHT22;10382;49.140;9.234;2023-04-01T06:31:02;11.10;99.90
20446;DHT22;10382;49.140;9.234;2023-04-01T06:33:38;11.10;99.90
20446;DHT22;10382;49.140;9.234;2023-04-01T06:36:20;11.00;99.90
20446;DHT22;10382;49.140;9.234;2023-04-01T06:42:20;10.90;99.90
20446;DHT22;10382;49.140;9.234;2023-04-01T06:45:01;10.90;99.90
20446;DHT22;10382;49.140;9.234;2023-04-01T06:47:43;10.90;99.90
20446;DHT22;10382;49.140;9.234;2023-04-01T06:50:21;10.90;99.90
20446;DHT22;10382;49.140;9.234;2023-04-01T06:52:55;10.90;99.90
20446;DHT22;10382;49.140;9.234;2023-04-01T06:55:32;10.80;99.90
20446;DHT22;10382;49.140;9.234;2023-04-01T06:58:05;10.80;99.90
20446;DHT22;10382;49.140;9.234;2023-04-01T07:00:36;10.90;99.90
20446;DHT22;10382;49.140;9.234;2023-04-01T07:03:16;10.90;99.90
20446;DHT22;10382;49.140;9.234;2023-04-01T07:05:45;10.90;99.90
20446;DHT22;10382;49.140;9.234;2023-04-01T07:08:16;10.90;99.90
20446;DHT22;10382;49.140;9.234;2023-04-01T07:10:50;10.90;99.90
20446;DHT22;10382;49.140;9.234;2023-04-01T07:13:20;10.90;99.90
20446;DHT22;10382;49.140;9.234;2023-04-01T07:15:55;11.00;99.90
20446;DHT22;10382;49.140;9.234;2023-04-01T07:18:30;11.00;99.90
20446;DHT22;10382;49.140;9.234;2023-04-01T07:20:58;11.10;99.90
20446;DHT22;10382;49.140;9.234;2023-04-01T07:23:29;11.10;99.90
20446;DHT22;10382;49.140;9.234;2023-04-01T07:26:03;11.10;99.90
20446;DHT22;10382;49.140;9.234;2023-04-01T07:28:33;11.10;99.90
20446;DHT22;10382;49.140;9.234;2023-04-01T07:31:09;11.00;99.90
20446;DHT22;10382;49.140;9.234;2023-04-01T07:33:43;11.10;99.90
20446;DHT22;10382;49.140;9.234;2023-04-01T07:36:14;11.00;99.90
20446;DHT22;10382;49.140;9.234;2023-04-01T07:38:51;11.00;99.90
20446;DHT22;10382;49.140;9.234;2023-04-01T07:41:30;11.00;99.90
20446;DHT22;10382;49.140;9.234;2023-04-01T07:44:08;11.00;99.90
20446;DHT22;10382;49.140;9.234;2023-04-01T07:46:50;11.00;99.90
20446;DHT22;10382;49.140;9.234;2023-04-01T07:49:26;10.80;99.90
20446;DHT22;10382;49.140;9.234;2023-04-01T07:51:59;10.80;99.90
20446;DHT22;10382;49.140;9.234;2023-04-01T07:54:33;10.80;99.90
20446;DHT22;10382;49.140;9.234;2023-04-01T07:57:07;10.90;99.90
20446;DHT22;10382;49.140;9.234;2023-04-01T07:59:40;10.80;99.90
20446;DHT22;10382;49.140;9.234;2023-04-01T08:02:23;10.90;99.90
20446;DHT22;10382;49.140;9.234;2023-04-01T08:04:58;10.90;99.90
20446;DHT22;10382;49.140;9.234;2023-04-01T08:07:32;10.90;99.90
20446;DHT22;10382;49.140;9.234;2023-04-01T08:10:04;10.80;99.90
20446;DHT22;10382;49.140;9.234;2023-04-01T08:12:43;10.80;99.90
20446;DHT22;10382;49.140;9.234;2023-04-01T08:15:17;10.80;99.90
20446;DHT22;10382;49.140;9.234;2023-04-01T08:17:58;10.80;99.90
20446;DHT22;10382;49.140;9.234;2023-04-01T08:20:32;10.80;99.90
20446;DHT22;10382;49.140;9.234;2023-04-01T08:23:05;10.70;99.90
20446;DHT22;10382;49.140;9.234;2023-04-01T08:25:34;10.60;99.90
20446;DHT22;10382;49.140;9.234;2023-04-01T08:28:11;10.60;99.90
20446;DHT22;10382;49.140;9.234;2023-04-01T08:30:43;10.60;99.90
20446;DHT22;10382;49.140;9.234;2023-04-01T08:33:13;10.60;99.90
20446;DHT22;10382;49.140;9.234;2023-04-01T08:35:47;10.50;99.90
20446;DHT22;10382;49.140;9.234;2023-04-01T08:38:19;10.40;99.90
20446;DHT22;10382;49.140;9.234;2023-04-01T08:41:21;10.30;99.90
20446;DHT22;10382;49.140;9.234;2023-04-01T08:44:34;10.30;99.90
20446;DHT22;10382;49.140;9.234;2023-04-01T08:47:18;10.30;99.90
20446;DHT22;10382;49.140;9.234;2023-04-01T08:53:03;10.20;99.90
20446;DHT22;10382;49.140;9.234;2023-04-01T08:55:44;10.20;99.90
20446;DHT22;10382;49.140;9.234;2023-04-01T09:01:32;10.30;99.90
20446;DHT22;10382;49.140;9.234;2023-04-01T09:04:18;10.60;99.90
20446;DHT22;10382;49.140;9.234;2023-04-01T09:06:56;10.50;99.90
20446;DHT22;10382;49.140;9.234;2023-04-01T09:09:47;10.50;99.90
20446;DHT22;10382;49.140;9.234;2023-04-01T09:12:51;10.40;99.90
20446;DHT22;10382;49.140;9.234;2023-04-01T09:18:55;10.50;99.90
20446;DHT22;10382;49.140;9.234;2023-04-01T09:21:35;10.60;99.90
20446;DHT22;10382;49.140;9.234;2023-04-01T09:27:26;10.70;99.90
20446;DHT22;10382;49.140;9.234;2023-04-01T09:33:21;10.80;99.90
20446;DHT22;10382;49.140;9.234;2023-04-01T09:36:04;10.80;99.90
20446;DHT22;10382;49.140;9.234;2023-04-01T09:38:40;10.80;99.90
20446;DHT22;10382;49.140;9.234;2023-04-01T09:41:17;10.90;99.90
20446;DHT22;10382;49.140;9.234;2023-04-01T09:44:02;11.00;99.90
20446;DHT22;10382;49.140;9.234;2023-04-01T09:46:54;11.10;99.90
20446;DHT22;10382;49.140;9.234;2023-04-01T09:49:40;10.90;99.90
20446;DHT22;10382;49.140;9.234;2023-04-01T09:52:31;10.80;99.90
20446;DHT22;10382;49.140;9.234;2023-04-01T09:58:24;10.80;99.90
20446;DHT22;10382;49.140;9.234;2023-04-01T10:04:24;10.80;99.90
20446;DHT22;10382;49.140;9.234;2023-04-01T10:13:33;11.10;99.90
20446;DHT22;10382;49.140;9.234;2023-04-01T10:16:26;11.10;99.90
20446;DHT22;10382;49.140;9.234;2023-04-01T10:19:39;11.00;99.90
20446;DHT22;10382;49.140;9.234;2023-04-01T10:22:21;11.00;99.90
20446;DHT22;10382;49.140;9.234;2023-04-01T10:28:21;11.00;99.90
20446;DHT22;10382;49.140;9.234;2023-04-01T10:37:34;11.20;99.90
20446;DHT22;10382;49.140;9.234;2023-04-01T10:40:38;11.10;99.90
20446;DHT22;10382;49.140;9.234;2023-04-01T10:47:18;11.10;99.90
20446;DHT22;10382;49.140;9.234;2023-04-01T10:53:31;11.00;99.90
20446;DHT22;10382;49.140;9.234;2023-04-01T11:05:49;11.20;99.90
20446;DHT22;10382;49.140;9.234;2023-04-01T11:14:48;11.00;99.90
20446;DHT22;10382;49.140;9.234;2023-04-01T11:17:49;11.00;99.90
20446;DHT22;10382;49.140;9.234;2023-04-01T11:20:51;11.10;99.90
20446;DHT22;10382;49.140;9.234;2023-04-01T11:23:45;11.20;99.90
20446;DHT22;10382;49.140;9.234;2023-04-01T11:26:26;11.20;99.90
20446;DHT22;10382;49.140;9.234;2023-04-01T11:32:12;11.00;99.90
20446;DHT22;10382;49.140;9.234;2023-04-01T11:35:07;11.00;99.90
20446;DHT22;10382;49.140;9.234;2023-04-01T11:37:42;11.00;99.90
20446;DHT22;10382;49.140;9.234;2023-04-01T11:40:18;10.90;99.90
20446;DHT22;10382;49.140;9.234;2023-04-01T11:42:53;10.90;99.90
20446;DHT22;10382;49.140;9.234;2023-04-01T11:45:28;11.00;99.90
20446;DHT22;10382;49.140;9.234;2023-04-01T11:48:11;11.00;99.90
20446;DHT22;10382;49.140;9.234;2023-04-01T11:50:53;11.10;99.90
20446;DHT22;10382;49.140;9.234;2023-04-01T11:53:29;11.10;99.90
20446;DHT22;10382;49.140;9.234;2023-04-01T11:56:07;11.10;99.90
20446;DHT22;10382;49.140;9.234;2023-04-01T12:01:58;11.30;99.90
20446;DHT22;10382;49.140;9.234;2023-04-01T12:05:11;11.30;99.90
20446;DHT22;10382;49.140;9.234;2023-04-01T12:08:07;11.30;99.90
20446;DHT22;10382;49.140;9.234;2023-04-01T12:10:39;11.40;99.90
20446;DHT22;10382;49.140;9.234;2023-04-01T12:13:18;11.30;99.90
20446;DHT22;10382;49.140;9.234;2023-04-01T12:16:04;11.30;99.90
20446;DHT22;10382;49.140;9.234;2023-04-01T12:18:38;11.20;99.90
20446;DHT22;10382;49.140;9.234;2023-04-01T12:21:16;11.30;99.90
20446;DHT22;10382;49.140;9.234;2023-04-01T12:26:55;11.10;99.90
20446;DHT22;10382;49.140;9.234;2023-04-01T12:29:47;11.10;99.90
20446;DHT22;10382;49.140;9.234;2023-04-01T12:32:23;11.10;99.90
20446;DHT22;10382;49.140;9.234;2023-04-01T12:35:08;11.10;99.90
20446;DHT22;10382;49.140;9.234;2023-04-01T12:37:44;11.10;99.90
20446;DHT22;10382;49.140;9.234;2023-04-01T12:40:48;11.10;99.90
20446;DHT22;10382;49.140;9.234;2023-04-01T12:43:42;11.10;99.90
20446;DHT22;10382;49.140;9.234;2023-04-01T12:46:19;11.00;99.90
20446;DHT22;10382;49.140;9.234;2023-04-01T12:49:10;11.00;99.90
20446;DHT22;10382;49.140;9.234;2023-04-01T12:52:05;11.00;99.90
20446;DHT22;10382;49.140;9.234;2023-04-01T12:54:55;11.00;99.90
20446;DHT22;10382;49.140;9.234;2023-04-01T12:57:45;11.10;99.90
20446;DHT22;10382;49.140;9.234;2023-04-01T13:00:30;11.00;99.90
20446;DHT22;10382;49.140;9.234;2023-04-01T13:03:15;11.00;99.90
20446;DHT22;10382;49.140;9.234;2023-04-01T13:06:07;11.20;99.90
20446;DHT22;10382;49.140;9.234;2023-04-01T13:08:44;11.50;99.90
20446;DHT22;10382;49.140;9.234;2023-04-01T13:11:20;11.80;99.90
20446;DHT22;10382;49.140;9.234;2023-04-01T13:16:57;11.90;99.90
20446;DHT22;10382;49.140;9.234;2023-04-01T13:19:31;11.90;99.90
20446;DHT22;10382;49.140;9.234;2023-04-01T13:22:06;11.70;99.90
20446;DHT22;10382;49.140;9.234;2023-04-01T13:24:41;11.70;99.90
20446;DHT22;10382;49.140;9.234;2023-04-01T13:27:16;11.70;99.90
20446;DHT22;10382;49.140;9.234;2023-04-01T13:30:10;11.60;99.90
20446;DHT22;10382;49.140;9.234;2023-04-01T13:32:47;11.60;99.90
20446;DHT22;10382;49.140;9.234;2023-04-01T13:35:23;11.60;99.90
20446;DHT22;10382;49.140;9.234;2023-04-01T13:38:00;11.50;99.90
20446;DHT22;10382;49.140;9.234;2023-04-01T13:40:39;11.40;99.90
20446;DHT22;10382;49.140;9.234;2023-04-01T13:43:15;11.30;99.90
20446;DHT22;10382;49.140;9.234;2023-04-01T13:46:02;11.30;99.90
20446;DHT22;10382;49.140;9.234;2023-04-01T13:49:11;11.30;99.90
20446;DHT22;10382;49.140;9.234;2023-04-01T13:55:20;11.30;99.90
20446;DHT22;10382;49.140;9.234;2023-04-01T13:58:00;11.30;99.90
20446;DHT22;10382;49.140;9.234;2023-04-01T14:00:41;11.40;99.90
20446;DHT22;10382;49.140;9.234;2023-04-01T14:03:26;11.40;99.90
20446;DHT22;10382;49.140;9.234;2023-04-01T14:06:05;11.30;99.90
20446;DHT22;10382;49.140;9.234;2023-04-01T14:08:42;11.30;99.90
20446;DHT22;10382;49.140;9.234;2023-04-01T14:11:17;11.40;99.90
20446;DHT22;10382;49.140;9.234;2023-04-01T14:13:56;11.30;99.90
20446;DHT22;10382;49.140;9.234;2023-04-01T14:17:02;11.30;99.90
20446;DHT22;10382;49.140;9.234;2023-04-01T14:19:58;11.30;99.90
20446;DHT22;10382;49.140;9.234;2023-04-01T14:22:33;11.30;99.90
20446;DHT22;10382;49.140;9.234;2023-04-01T14:25:22;11.30;99.90
20446;DHT22;10382;49.140;9.234;2023-04-01T14:28:00;11.20;99.90
20446;DHT22;10382;49.140;9.234;2023-04-01T14:30:56;11.10;99.90
20446;DHT22;10382;49.140;9.234;2023-04-01T14:33:34;11.20;99.90
20446;DHT22;10382;49.140;9.234;2023-04-01T14:36:29;11.30;99.90
20446;DHT22;10382;49.140;9.234;2023-04-01T14:39:08;11.30;99.90
20446;DHT22;10382;49.140;9.234;2023-04-01T14:41:45;11.20;99.90
20446;DHT22;10382;49.140;9.234;2023-04-01T14:44:45;11.20;99.90
20446;DHT22;10382;49.140;9.234;2023-04-01T14:47:28;11.30;99.90
20446;DHT22;10382;49.140;9.234;2023-04-01T14:50:08;11.40;99.90
20446;DHT22;10382;49.140;9.234;2023-04-01T14:52:39;11.40;99.90
20446;DHT22;10382;49.140;9.234;2023-04-01T14:55:20;11.40;99.90
20446;DHT22;10382;49.140;9.234;2023-04-01T14:57:59;11.50;99.90
20446;DHT22;10382;49.140;9.234;2023-04-01T15:00:26;11.60;99.90
20446;DHT22;10382;49.140;9.234;2023-04-01T15:03:11;11.70;99.90
20446;DHT22;10382;49.140;9.234;2023-04-01T15:05:47;11.70;99.90
20446;DHT22;10382;49.140;9.234;2023-04-01T15:08:20;11.70;99.90
20446;DHT22;10382;49.140;9.234;2023-04-01T15:11:10;11.70;99.90
20446;DHT22;10382;49.140;9.234;2023-04-01T15:13:52;11.60;99.90
20446;DHT22;10382;49.140;9.234;2023-04-01T15:16:26;11.60;99.90
20446;DHT22;10382;49.140;9.234;2023-04-01T15:19:03;11.60;99.90
20446;DHT22;10382;49.140;9.234;2023-04-01T15:21:48;11.60;99.90
20446;DHT22;10382;49.140;9.234;2023-04-01T15:24:21;11.70;99.90
20446;DHT22;10382;49.140;9.234;2023-04-01T15:27:03;11.60;99.90
20446;DHT22;10382;49.140;9.234;2023-04-01T15:29:56;11.50;99.90
20446;DHT22;10382;49.140;9.234;2023-04-01T15:32:40;11.40;99.90
20446;DHT22;10382;49.140;9.234;2023-04-01T15:35:20;11.30;99.90
20446;DHT22;10382;49.140;9.234;2023-04-01T15:37:54;11.40;99.90
20446;DHT22;10382;49.140;9.234;2023-04-01T15:40:28;11.40;99.90
20446;DHT22;10382;49.140;9.234;2023-04-01T15:43:06;11.40;99.90
20446;DHT22;10382;49.140;9.234;2023-04-01T15:45:45;11.40;99.90
20446;DHT22;10382;49.140;9.234;2023-04-01T15:48:28;11.50;99.90
20446;DHT22;10382;49.140;9.234;2023-04-01T15:51:11;11.50;99.90
20446;DHT22;10382;49.140;9.234;2023-04-01T15:54:06;11.50;99.90
20446;DHT22;10382;49.140;9.234;2023-04-01T15:56:49;11.50;99.90
20446;DHT22;10382;49.140;9.234;2023-04-01T15:59:36;11.40;99.90
20446;DHT22;10382;49.140;9.234;2023-04-01T16:02:12;11.30;99.90
20446;DHT22;10382;49.140;9.234;2023-04-01T16:04:48;11.30;99.90
20446;DHT22;10382;49.140;9.234;2023-04-01T16:07:26;11.30;99.90
20446;DHT22;10382;49.140;9.234;2023-04-01T16:10:09;11.40;99.90
20446;DHT22;10382;49.140;9.234;2023-04-01T16:12:56;11.40;99.90
20446;DHT22;10382;49.140;9.234;2023-04-01T16:15:29;11.40;99.90
20446;DHT22;10382;49.140;9.234;2023-04-01T16:18:16;11.40;99.90
20446;DHT22;10382;49.140;9.234;2023-04-01T16:20:51;11.50;99.90
20446;DHT22;10382;49.140;9.234;2023-04-01T16:23:26;11.50;99.90
20446;DHT22;10382;49.140;9.234;2023-04-01T16:26:03;11.50;99.90
20446;DHT22;10382;49.140;9.234;2023-04-01T16:28:38;11.50;99.90
20446;DHT22;10382;49.140;9.234;2023-04-01T16:31:09;11.40;99.90
20446;DHT22;10382;49.140;9.234;2023-04-01T16:33:46;11.40;99.90
20446;DHT22;10382;49.140;9.234;2023-04-01T16:36:24;11.30;99.90
20446;DHT22;10382;49.140;9.234;2023-04-01T16:39:06;11.40;99.90
20446;DHT22;10382;49.140;9.234;2023-04-01T16:41:35;11.50;99.90
20446;DHT22;10382;49.140;9.234;2023-04-01T16:44:16;11.60;99.90
20446;DHT22;10382;49.140;9.234;2023-04-01T16:46:45;11.60;99.90
20446;DHT22;10382;49.140;9.234;2023-04-01T16:49:24;11.70;99.90
20446;DHT22;10382;49.140;9.234;2023-04-01T16:52:04;11.60;99.90
20446;DHT22;10382;49.140;9.234;2023-04-01T16:54:42;11.50;99.90
20446;DHT22;10382;49.140;9.234;2023-04-01T16:57:18;11.60;99.90
20446;DHT22;10382;49.140;9.234;2023-04-01T16:59:54;11.50;99.90
20446;DHT22;10382;49.140;9.234;2023-04-01T17:02:26;11.60;99.90
20446;DHT22;10382;49.140;9.234;2023-04-01T17:05:00;11.60;99.90
20446;DHT22;10382;49.140;9.234;2023-04-01T17:07:37;11.60;99.90
20446;DHT22;10382;49.140;9.234;2023-04-01T17:16:24;11.50;99.90
20446;DHT22;10382;49.140;9.234;2023-04-01T17:19:00;11.60;99.90
20446;DHT22;10382;49.140;9.234;2023-04-01T17:21:40;11.60;99.90
20446;DHT22;10382;49.140;9.234;2023-04-01T17:24:24;11.40;99.90
20446;DHT22;10382;49.140;9.234;2023-04-01T17:26:58;11.40;99.90
20446;DHT22;10382;49.140;9.234;2023-04-01T17:29:34;11.30;99.90
20446;DHT22;10382;49.140;9.234;2023-04-01T17:32:11;11.30;99.90
20446;DHT22;10382;49.140;9.234;2023-04-01T17:34:50;11.30;99.90
20446;DHT22;10382;49.140;9.234;2023-04-01T17:37:28;11.30;99.90
20446;DHT22;10382;49.140;9.234;2023-04-01T17:40:14;11.30;99.90
20446;DHT22;10382;49.140;9.234;2023-04-01T17:42:47;11.30;99.90
20446;DHT22;10382;49.140;9.234;2023-04-01T17:45:22;11.30;99.90
20446;DHT22;10382;49.140;9.234;2023-04-01T17:48:01;11.30;99.90
20446;DHT22;10382;49.140;9.234;2023-04-01T17:50:42;11.30;99.90
20446;DHT22;10382;49.140;9.234;2023-04-01T17:53:19;11.30;99.90
20446;DHT22;10382;49.140;9.234;2023-04-01T17:55:59;11.20;99.90
20446;DHT22;10382;49.140;9.234;2023-04-01T17:58:31;11.10;99.90
20446;DHT22;10382;49.140;9.234;2023-04-01T18:01:17;11.10;99.90